Time;durP1;ratioP1;P1;durP2;ratioP2;P2;SDS_P1;SDS_P2;PMS_P1;PMS_P2;Temp;Humidity;BMP_temperature;BMP_pressure;BME280_temperature;BME280_humidity;BME280_pressure;Samples;Min_cycle;Max_cycle;Signal;HPM_P1;HPM_P2
2022/09/17 00:01:18;;;;;;;2.22;0.98;;;12.10;99.90;;;;;;5078221;28;20280;-74
2022/09/17 00:03:52;;;;;;;2.58;0.90;;;12.10;99.90;;;;;;5075658;28;20188;-73
2022/09/17 00:06:19;;;;;;;2.78;0.90;;;12.10;99.90;;;;;;5064873;28;20171;-74
2022/09/17 00:08:44;;;;;;;3.03;0.90;;;12.10;99.90;;;;;;5078099;28;20200;-74
2022/09/17 00:11:22;;;;;;;2.13;1.00;;;12.10;99.90;;;;;;5078601;28;20244;-74
2022/09/17 00:13:51;;;;;;;2.13;0.82;;;12.10;99.90;;;;;;5080565;28;20224;-74
2022/09/17 00:16:32;;;;;;;2.17;0.80;;;12.10;99.90;;;;;;5077721;28;20171;-76
2022/09/17 00:19:01;;;;;;;3.08;1.10;;;12.10;99.90;;;;;;5063330;28;20173;-76
2022/09/17 00:21:32;;;;;;;3.35;1.10;;;12.20;99.90;;;;;;5067758;28;20201;-78
2022/09/17 00:24:04;;;;;;;2.70;1.00;;;12.10;99.90;;;;;;5075628;28;20203;-72
2022/09/17 00:26:31;;;;;;;2.20;1.00;;;12.10;99.90;;;;;;5077912;28;20163;-73
2022/09/17 00:28:58;;;;;;;1.50;0.73;;;12.10;99.90;;;;;;5077275;28;20203;-72
2022/09/17 00:31:24;;;;;;;1.70;0.90;;;12.20;99.90;;;;;;5078534;28;20168;-70
2022/09/17 00:33:51;;;;;;;3.00;1.10;;;12.20;99.90;;;;;;5079406;28;20178;-69
2022/09/17 00:36:20;;;;;;;3.13;1.08;;;12.20;99.90;;;;;;5075932;28;20306;-70
2022/09/17 00:38:54;;;;;;;1.52;0.70;;;12.20;99.90;;;;;;5059783;28;20275;-70
2022/09/17 00:41:23;;;;;;;1.55;0.90;;;12.30;99.90;;;;;;5070117;28;20208;-70
2022/09/17 00:43:51;;;;;;;2.85;1.00;;;12.30;99.90;;;;;;5077159;28;20176;-71
2022/09/17 00:46:33;;;;;;;4.72;1.00;;;12.30;99.90;;;;;;5070497;28;20164;-70
2022/09/17 00:49:06;;;;;;;2.40;1.05;;;12.30;99.90;;;;;;5077043;28;20191;-71
2022/09/17 00:51:42;;;;;;;2.30;0.90;;;12.40;99.90;;;;;;5058640;28;20184;-71
2022/09/17 00:54:10;;;;;;;3.35;1.10;;;12.40;99.90;;;;;;5061312;28;20160;-73
2022/09/17 00:56:43;;;;;;;2.22;1.05;;;12.40;99.90;;;;;;5059175;28;20229;-73
2022/09/17 00:59:09;;;;;;;2.75;1.08;;;12.40;99.90;;;;;;5070976;28;20172;-73
2022/09/17 01:01:37;;;;;;;1.52;0.90;;;12.40;99.90;;;;;;5071461;28;20241;-73
2022/09/17 01:04:03;;;;;;;2.90;0.90;;;12.50;99.90;;;;;;5076016;28;20211;-73
2022/09/17 01:06:34;;;;;;;2.92;1.08;;;12.40;99.90;;;;;;5069668;28;20177;-73
2022/09/17 01:09:18;;;;;;;2.03;0.90;;;12.50;99.90;;;;;;5067483;28;20197;-73
2022/09/17 01:11:56;;;;;;;2.88;0.95;;;12.40;99.90;;;;;;5077704;28;20236;-74
2022/09/17 01:14:42;;;;;;;2.70;1.02;;;12.50;99.90;;;;;;5077586;28;20217;-73
2022/09/17 01:17:23;;;;;;;3.13;0.90;;;12.50;99.90;;;;;;5077663;28;20235;-74
2022/09/17 01:20:11;;;;;;;3.15;1.13;;;12.50;99.90;;;;;;5070961;28;20195;-73
2022/09/17 01:22:44;;;;;;;4.03;1.35;;;12.50;99.90;;;;;;5058001;28;20228;-73
2022/09/17 01:25:31;;;;;;;4.57;1.20;;;12.50;99.90;;;;;;5074766;28;20192;-74
2022/09/17 01:28:36;;;;;;;5.40;1.30;;;12.50;99.90;;;;;;5075800;28;20176;-74
2022/09/17 01:31:27;;;;;;;3.65;1.10;;;12.50;99.90;;;;;;5073578;28;20212;-73
2022/09/17 01:34:01;;;;;;;3.33;1.10;;;12.50;99.90;;;;;;5077220;28;20175;-74
2022/09/17 01:36:52;;;;;;;2.70;1.00;;;12.50;99.90;;;;;;5076821;28;20175;-73
2022/09/17 01:39:34;;;;;;;3.15;1.10;;;12.60;99.90;;;;;;5068033;28;20177;-71
2022/09/17 01:42:30;;;;;;;4.78;1.30;;;12.60;99.90;;;;;;5069925;28;20169;-75
2022/09/17 01:45:26;;;;;;;3.15;1.05;;;12.60;99.90;;;;;;5056968;28;20231;-73
2022/09/17 01:48:18;;;;;;;4.00;1.27;;;12.60;99.90;;;;;;5056966;28;20184;-73
2022/09/17 01:50:54;;;;;;;2.35;1.00;;;12.60;99.90;;;;;;5072471;28;20223;-73
2022/09/17 01:53:30;;;;;;;3.92;1.25;;;12.60;99.90;;;;;;5079483;28;20228;-73
2022/09/17 01:56:00;;;;;;;3.20;1.20;;;12.60;99.90;;;;;;5081220;28;20176;-75
2022/09/17 01:58:30;;;;;;;6.45;1.40;;;12.60;99.90;;;;;;5079760;28;20257;-72
2022/09/17 02:01:03;;;;;;;5.63;1.20;;;12.60;99.90;;;;;;5068031;28;20206;-70
2022/09/17 02:03:45;;;;;;;2.92;1.10;;;12.60;99.90;;;;;;5069539;28;20202;-69
2022/09/17 02:06:24;;;;;;;2.25;1.00;;;12.60;99.90;;;;;;5073481;28;20222;-72
2022/09/17 02:09:00;;;;;;;2.03;1.13;;;12.60;99.90;;;;;;5081112;28;20364;-71
2022/09/17 02:11:26;;;;;;;5.30;1.60;;;12.60;99.90;;;;;;5080526;28;20156;-71
2022/09/17 02:13:55;;;;;;;3.90;1.20;;;12.60;99.90;;;;;;5063895;28;20177;-72
2022/09/17 02:16:23;;;;;;;4.00;1.40;;;12.60;99.90;;;;;;5080227;28;20186;-71
2022/09/17 02:18:56;;;;;;;3.95;1.35;;;12.60;99.90;;;;;;5078523;28;20294;-71
2022/09/17 02:21:33;;;;;;;3.00;1.27;;;12.60;99.90;;;;;;5077388;28;20176;-70
2022/09/17 02:24:05;;;;;;;4.32;1.33;;;12.60;99.90;;;;;;5078752;28;20183;-71
2022/09/17 02:26:33;;;;;;;2.58;1.10;;;12.60;99.90;;;;;;5080492;28;20204;-71
2022/09/17 02:29:10;;;;;;;6.43;1.20;;;12.50;99.90;;;;;;5098055;28;20226;-73
2022/09/17 02:31:40;;;;;;;4.18;1.20;;;12.50;99.90;;;;;;5060656;28;20163;-73
2022/09/17 02:34:10;;;;;;;4.15;1.20;;;12.50;99.90;;;;;;5072403;28;20216;-73
2022/09/17 02:36:38;;;;;;;3.08;1.20;;;12.50;99.90;;;;;;5080172;28;20206;-70
2022/09/17 02:39:03;;;;;;;4.45;1.33;;;12.50;99.90;;;;;;5080047;28;20187;-71
2022/09/17 02:41:45;;;;;;;2.53;1.15;;;12.40;99.90;;;;;;5075103;28;20176;-70
2022/09/17 02:44:17;;;;;;;5.00;1.33;;;12.50;99.90;;;;;;5079120;28;20232;-71
2022/09/17 02:47:04;;;;;;;5.57;1.58;;;12.40;99.90;;;;;;5074586;28;20192;-70
2022/09/17 02:50:05;;;;;;;3.85;1.17;;;12.50;99.90;;;;;;5071911;28;20200;-71
2022/09/17 02:52:59;;;;;;;2.60;1.02;;;12.40;99.90;;;;;;5075138;28;20486;-73
2022/09/17 02:55:44;;;;;;;3.88;1.30;;;12.40;99.90;;;;;;5078709;28;20172;-73
2022/09/17 02:58:33;;;;;;;3.78;1.17;;;12.40;99.90;;;;;;5060022;28;20408;-73
2022/09/17 03:01:05;;;;;;;3.35;1.17;;;12.40;99.90;;;;;;5077461;28;20199;-72
2022/09/17 03:03:40;;;;;;;6.03;1.15;;;12.40;99.90;;;;;;5083726;28;20187;-73
2022/09/17 03:06:06;;;;;;;3.40;0.90;;;12.30;99.90;;;;;;5079310;28;20183;-72
2022/09/17 03:08:38;;;;;;;4.32;1.00;;;12.30;99.90;;;;;;5066436;28;20253;-73
2022/09/17 03:11:12;;;;;;;2.35;0.80;;;12.30;99.90;;;;;;5079259;28;20200;-73
2022/09/17 03:13:41;;;;;;;3.20;1.02;;;12.30;99.90;;;;;;5079702;28;20176;-70
2022/09/17 03:16:07;;;;;;;4.00;1.20;;;12.30;99.90;;;;;;5063272;28;20193;-71
2022/09/17 03:18:33;;;;;;;4.75;1.50;;;12.30;99.90;;;;;;5067874;28;20182;-70
2022/09/17 03:20:58;;;;;;;3.72;1.13;;;12.30;99.90;;;;;;5078473;28;20183;-70
2022/09/17 03:23:26;;;;;;;4.53;1.20;;;12.30;99.90;;;;;;5070472;28;20284;-70
2022/09/17 03:25:52;;;;;;;3.88;1.00;;;12.30;99.90;;;;;;5082244;28;20282;-70
2022/09/17 03:28:18;;;;;;;4.75;1.33;;;12.40;99.90;;;;;;5067481;28;20200;-69
2022/09/17 03:30:44;;;;;;;3.35;1.08;;;12.40;99.90;;;;;;5061388;28;20208;-70
2022/09/17 03:33:10;;;;;;;3.83;1.30;;;12.40;99.90;;;;;;5068603;28;20183;-70
2022/09/17 03:35:42;;;;;;;2.78;0.95;;;12.40;99.90;;;;;;5077099;28;20164;-70
2022/09/17 03:38:07;;;;;;;3.42;0.93;;;12.40;99.90;;;;;;5067110;28;20203;-70
2022/09/17 03:40:33;;;;;;;5.93;1.25;;;12.40;99.90;;;;;;5078863;28;20260;-70
2022/09/17 03:42:59;;;;;;;3.00;1.10;;;12.40;99.90;;;;;;5076214;28;20274;-70
2022/09/17 03:45:24;;;;;;;4.68;1.27;;;12.40;99.90;;;;;;5079189;28;20171;-70
2022/09/17 03:47:52;;;;;;;4.00;1.17;;;12.40;99.90;;;;;;5096299;28;20180;-70
2022/09/17 03:50:20;;;;;;;4.53;1.10;;;12.40;99.90;;;;;;5075243;28;20215;-70
2022/09/17 03:52:46;;;;;;;2.17;0.90;;;12.40;99.90;;;;;;5080436;28;20178;-69
2022/09/17 03:55:11;;;;;;;3.88;1.13;;;12.50;99.90;;;;;;5063836;28;20181;-71
2022/09/17 03:57:37;;;;;;;3.42;1.08;;;12.50;99.90;;;;;;5069703;28;20176;-71
2022/09/17 04:00:06;;;;;;;4.40;1.30;;;12.50;99.90;;;;;;5073534;28;20191;-70
2022/09/17 04:02:31;;;;;;;3.65;0.93;;;12.50;99.90;;;;;;5067819;28;20214;-70
2022/09/17 04:04:57;;;;;;;8.20;1.20;;;12.50;99.90;;;;;;5059706;28;20177;-71
2022/09/17 04:07:23;;;;;;;4.07;0.95;;;12.60;99.90;;;;;;5067243;28;20180;-70
2022/09/17 04:09:48;;;;;;;3.85;1.35;;;12.60;99.90;;;;;;5072555;28;20729;-69
2022/09/17 04:12:19;;;;;;;3.65;1.10;;;12.60;99.90;;;;;;5078517;28;20184;-71
2022/09/17 04:14:44;;;;;;;3.40;1.38;;;12.60;99.90;;;;;;5066773;28;20219;-70
2022/09/17 04:17:16;;;;;;;3.92;1.45;;;12.60;99.90;;;;;;5063259;28;20196;-70
2022/09/17 04:19:44;;;;;;;5.22;1.25;;;12.50;99.90;;;;;;5075051;28;20201;-70
2022/09/17 04:22:12;;;;;;;5.03;1.20;;;12.60;99.90;;;;;;5084546;28;20176;-70
2022/09/17 04:24:38;;;;;;;4.15;1.40;;;12.60;99.90;;;;;;5073163;28;20216;-70
2022/09/17 04:27:04;;;;;;;4.13;1.10;;;12.60;99.90;;;;;;5075346;28;20206;-70
2022/09/17 04:29:29;;;;;;;5.05;1.60;;;12.60;99.90;;;;;;5067167;28;20286;-70
2022/09/17 04:31:57;;;;;;;3.47;1.17;;;12.60;99.90;;;;;;5077906;28;20175;-72
2022/09/17 04:34:23;;;;;;;3.17;1.00;;;12.60;99.90;;;;;;5077186;28;20223;-70
2022/09/17 04:36:48;;;;;;;3.42;1.13;;;12.60;99.90;;;;;;5073013;28;20169;-71
2022/09/17 04:39:14;;;;;;;2.55;1.10;;;12.60;99.90;;;;;;5071380;28;20176;-70
2022/09/17 04:41:42;;;;;;;5.10;0.80;;;12.60;99.90;;;;;;5075445;28;20203;-70
2022/09/17 04:44:07;;;;;;;3.28;1.58;;;12.60;99.90;;;;;;5077389;28;20184;-70
2022/09/17 04:46:33;;;;;;;6.00;1.60;;;12.70;99.90;;;;;;5070572;28;20187;-70
2022/09/17 04:49:01;;;;;;;4.95;1.60;;;12.60;99.90;;;;;;5061797;28;20198;-70
2022/09/17 04:51:26;;;;;;;3.67;1.27;;;12.60;99.90;;;;;;5059926;28;20173;-70
2022/09/17 04:53:57;;;;;;;2.83;1.33;;;12.60;99.90;;;;;;5077528;28;20203;-70
2022/09/17 04:56:22;;;;;;;4.93;1.38;;;12.60;99.90;;;;;;5069162;28;20195;-72
2022/09/17 04:58:48;;;;;;;3.05;1.05;;;12.60;99.90;;;;;;5071380;28;20211;-71
2022/09/17 05:01:17;;;;;;;4.40;0.90;;;12.50;99.90;;;;;;5057699;28;20192;-72
2022/09/17 05:03:43;;;;;;;4.03;1.00;;;12.60;99.90;;;;;;5060387;28;20259;-71
2022/09/17 05:06:09;;;;;;;3.75;0.90;;;12.50;99.90;;;;;;5064029;28;20228;-71
2022/09/17 05:08:35;;;;;;;4.32;1.30;;;12.50;99.90;;;;;;5066509;28;20267;-71
2022/09/17 05:11:01;;;;;;;3.63;1.00;;;12.50;99.90;;;;;;5082948;28;20226;-72
2022/09/17 05:13:29;;;;;;;4.50;0.80;;;12.50;99.90;;;;;;5080043;28;20204;-72
2022/09/17 05:15:58;;;;;;;5.35;1.45;;;12.60;99.90;;;;;;5058994;28;20180;-72
2022/09/17 05:18:26;;;;;;;4.75;1.20;;;12.50;99.90;;;;;;5061107;28;20211;-72
2022/09/17 05:20:52;;;;;;;3.85;1.20;;;12.50;99.90;;;;;;5059746;28;20204;-72
2022/09/17 05:23:19;;;;;;;4.57;1.40;;;12.50;99.90;;;;;;5063580;28;20275;-72
2022/09/17 05:25:45;;;;;;;5.05;1.23;;;12.50;99.90;;;;;;5066200;28;20338;-72
2022/09/17 05:28:11;;;;;;;2.90;0.90;;;12.50;99.90;;;;;;5061435;28;20391;-72
2022/09/17 05:30:36;;;;;;;3.47;1.08;;;12.60;99.90;;;;;;5063376;28;20203;-72
2022/09/17 05:33:05;;;;;;;2.67;1.00;;;12.60;99.90;;;;;;5065292;28;20269;-72
2022/09/17 05:35:32;;;;;;;3.00;1.02;;;12.50;99.90;;;;;;5077310;28;20176;-71
2022/09/17 05:38:06;;;;;;;4.85;1.20;;;12.60;99.90;;;;;;5062604;28;20203;-73
2022/09/17 05:40:36;;;;;;;5.95;1.63;;;12.50;99.90;;;;;;5077358;28;20251;-73
2022/09/17 05:43:04;;;;;;;6.63;1.20;;;12.60;99.90;;;;;;5061788;28;20281;-73
2022/09/17 05:45:33;;;;;;;4.13;0.90;;;12.50;99.90;;;;;;5076581;28;20268;-72
2022/09/17 05:48:00;;;;;;;4.22;1.25;;;12.60;99.90;;;;;;5070216;28;20168;-74
2022/09/17 05:50:26;;;;;;;3.47;1.08;;;12.60;99.90;;;;;;5064971;28;20208;-71
2022/09/17 05:52:55;;;;;;;4.85;2.13;;;12.60;99.90;;;;;;5072522;28;20211;-72
2022/09/17 05:55:22;;;;;;;4.57;2.38;;;12.60;99.90;;;;;;5074591;28;20237;-73
2022/09/17 05:57:51;;;;;;;7.28;1.80;;;12.60;99.90;;;;;;5077855;28;20179;-74
2022/09/17 06:00:17;;;;;;;3.13;1.45;;;12.60;99.90;;;;;;5092259;28;20172;-70
2022/09/17 06:02:43;;;;;;;2.40;1.08;;;12.60;99.90;;;;;;5059207;28;20200;-73
2022/09/17 06:05:09;;;;;;;4.63;1.17;;;12.70;99.90;;;;;;5063060;28;20198;-72
2022/09/17 06:07:38;;;;;;;2.58;1.00;;;12.60;99.90;;;;;;5068197;28;20179;-72
2022/09/17 06:10:05;;;;;;;4.20;1.25;;;12.70;99.90;;;;;;5076111;28;20238;-72
2022/09/17 06:12:34;;;;;;;4.53;1.30;;;12.70;99.90;;;;;;5068959;28;20184;-72
2022/09/17 06:15:00;;;;;;;2.75;1.05;;;12.80;99.90;;;;;;5059463;28;20273;-72
2022/09/17 06:17:25;;;;;;;3.08;0.93;;;12.70;99.90;;;;;;5072469;28;20240;-73
2022/09/17 06:19:51;;;;;;;2.83;1.10;;;12.80;99.90;;;;;;5076075;28;20176;-71
2022/09/17 06:22:18;;;;;;;6.57;1.08;;;12.80;99.90;;;;;;5065250;28;20196;-72
2022/09/17 06:24:44;;;;;;;4.32;1.00;;;12.80;99.90;;;;;;5075517;28;20215;-73
2022/09/17 06:27:10;;;;;;;4.03;1.20;;;12.90;99.90;;;;;;5074359;28;20260;-72
2022/09/17 06:29:35;;;;;;;5.82;1.38;;;12.90;99.90;;;;;;5056826;28;20199;-72
2022/09/17 06:32:04;;;;;;;3.50;1.00;;;12.90;99.90;;;;;;5068885;28;20307;-72
2022/09/17 06:34:29;;;;;;;4.78;1.25;;;13.00;99.90;;;;;;5069749;28;20185;-72
2022/09/17 06:36:55;;;;;;;5.25;1.23;;;13.10;99.90;;;;;;5077091;28;20168;-70
2022/09/17 06:39:23;;;;;;;3.22;1.00;;;13.20;99.90;;;;;;5063776;28;20173;-72
2022/09/17 06:41:49;;;;;;;3.72;1.30;;;13.20;99.90;;;;;;5078165;28;20233;-71
2022/09/17 06:44:16;;;;;;;3.42;1.00;;;13.20;99.90;;;;;;5067988;28;20172;-68
2022/09/17 06:46:50;;;;;;;4.70;1.30;;;13.30;99.90;;;;;;5065333;28;20180;-71
2022/09/17 06:49:16;;;;;;;4.05;1.10;;;13.40;99.90;;;;;;5079575;28;20191;-71
2022/09/17 06:51:43;;;;;;;3.22;1.10;;;13.50;99.90;;;;;;5080291;28;20188;-71
2022/09/17 06:54:09;;;;;;;5.32;0.95;;;13.60;99.90;;;;;;5077801;28;20203;-71
2022/09/17 06:56:34;;;;;;;5.82;1.60;;;13.70;99.90;;;;;;5088681;28;20173;-71
2022/09/17 06:59:00;;;;;;;12.93;1.40;;;13.70;99.90;;;;;;5062074;28;20168;-72
2022/09/17 07:01:26;;;;;;;5.25;1.25;;;13.80;99.90;;;;;;5074870;28;20313;-72
2022/09/17 07:03:52;;;;;;;4.78;1.05;;;13.90;99.90;;;;;;5066601;28;20256;-72
2022/09/17 07:06:17;;;;;;;4.97;1.20;;;14.00;99.90;;;;;;5060195;28;20283;-72
2022/09/17 07:08:43;;;;;;;4.30;1.05;;;14.00;99.90;;;;;;5064851;28;20179;-72
2022/09/17 07:11:09;;;;;;;4.05;1.30;;;14.10;99.90;;;;;;5066219;28;20192;-72
2022/09/17 07:13:35;;;;;;;5.75;1.10;;;14.20;99.90;;;;;;5075429;28;20187;-73
2022/09/17 07:16:02;;;;;;;5.85;1.20;;;14.20;99.90;;;;;;5079972;28;20174;-71
2022/09/17 07:18:31;;;;;;;2.80;1.00;;;14.20;99.90;;;;;;5078126;28;20198;-71
2022/09/17 07:21:02;;;;;;;2.55;0.88;;;14.30;99.90;;;;;;5075893;28;20253;-72
2022/09/17 07:23:32;;;;;;;3.47;1.15;;;14.30;99.90;;;;;;5077980;28;20184;-72
2022/09/17 07:26:00;;;;;;;3.92;0.90;;;14.30;99.90;;;;;;5075828;28;20219;-71
2022/09/17 07:28:27;;;;;;;3.55;0.98;;;14.30;99.90;;;;;;5078174;28;20206;-67
2022/09/17 07:30:53;;;;;;;2.80;1.05;;;14.30;99.90;;;;;;5076201;28;20204;-67
2022/09/17 07:33:24;;;;;;;6.70;1.45;;;14.30;99.90;;;;;;5076843;28;20194;-67
2022/09/17 07:36:02;;;;;;;3.50;1.20;;;14.30;99.90;;;;;;5074593;28;20153;-68
2022/09/17 07:38:32;;;;;;;5.25;1.10;;;14.30;99.90;;;;;;5059458;28;20193;-67
2022/09/17 07:41:05;;;;;;;3.45;1.00;;;14.30;99.90;;;;;;5064944;28;20172;-66
2022/09/17 07:43:35;;;;;;;4.05;1.20;;;14.30;99.90;;;;;;5077171;28;20180;-68
2022/09/17 07:46:03;;;;;;;3.33;0.95;;;14.30;99.90;;;;;;5079659;28;20184;-68
2022/09/17 07:48:31;;;;;;;3.40;0.98;;;14.30;99.90;;;;;;5078408;28;20183;-67
2022/09/17 07:51:00;;;;;;;5.28;1.08;;;14.30;99.90;;;;;;5065320;28;20196;-67
2022/09/17 07:53:26;;;;;;;3.38;1.27;;;14.30;99.90;;;;;;5064224;28;20224;-67
2022/09/17 07:56:01;;;;;;;4.97;1.17;;;14.30;99.90;;;;;;5073046;28;20172;-67
2022/09/17 07:58:36;;;;;;;5.40;1.35;;;14.30;99.90;;;;;;5065090;28;21794;-67
2022/09/17 08:01:07;;;;;;;7.88;1.50;;;14.20;99.90;;;;;;5059569;28;20241;-68
2022/09/17 08:03:34;;;;;;;5.00;1.52;;;14.20;99.90;;;;;;5067540;28;20180;-67
2022/09/17 08:06:04;;;;;;;4.75;1.33;;;14.30;99.90;;;;;;5062376;28;20215;-66
2022/09/17 08:08:34;;;;;;;6.78;1.30;;;14.30;99.90;;;;;;5073531;28;20176;-66
2022/09/17 08:11:05;;;;;;;4.40;1.20;;;14.30;99.90;;;;;;5068294;28;20203;-66
2022/09/17 08:13:36;;;;;;;4.22;1.08;;;14.30;99.90;;;;;;5077329;28;20313;-74
2022/09/17 08:16:11;;;;;;;2.83;1.17;;;14.30;99.90;;;;;;5065995;28;20169;-70
2022/09/17 08:18:43;;;;;;;2.92;1.13;;;14.40;99.90;;;;;;5066257;28;20222;-73
2022/09/17 08:21:14;;;;;;;5.07;1.17;;;14.40;99.90;;;;;;5079080;28;20156;-71
2022/09/17 08:23:42;;;;;;;3.78;1.30;;;14.50;99.90;;;;;;5086814;28;20167;-70
2022/09/17 08:26:13;;;;;;;5.35;0.98;;;14.50;99.90;;;;;;5073599;28;20196;-71
2022/09/17 08:28:43;;;;;;;7.65;1.40;;;14.60;99.90;;;;;;5064014;28;20237;-71
2022/09/17 08:31:09;;;;;;;4.18;1.10;;;14.60;99.90;;;;;;5078437;28;20192;-72
2022/09/17 08:33:40;;;;;;;5.32;1.35;;;14.70;99.90;;;;;;5061253;28;20265;-71
2022/09/17 08:36:09;;;;;;;3.70;1.10;;;14.70;99.90;;;;;;5076306;28;20255;-71
2022/09/17 08:38:36;;;;;;;4.30;1.20;;;14.80;99.90;;;;;;5058540;28;20226;-69
2022/09/17 08:41:11;;;;;;;6.40;1.52;;;14.90;99.90;;;;;;5066491;28;20211;-71
2022/09/17 08:44:00;;;;;;;2.53;0.90;;;15.00;99.90;;;;;;5085441;28;20211;-71
2022/09/17 08:46:30;;;;;;;3.40;1.00;;;15.10;99.90;;;;;;5068058;28;20175;-71
2022/09/17 08:49:14;;;;;;;5.25;1.50;;;15.20;99.90;;;;;;5058111;28;20196;-72
2022/09/17 08:52:29;;;;;;;4.35;1.08;;;15.30;99.90;;;;;;5062208;28;20188;-71
2022/09/17 08:55:28;;;;;;;4.47;0.93;;;15.40;99.90;;;;;;5014369;28;20182;-72
2022/09/17 08:58:26;;;;;;;4.22;0.93;;;15.50;99.90;;;;;;5039894;28;20192;-72
2022/09/17 09:01:03;;;;;;;3.55;1.00;;;15.60;99.90;;;;;;5076358;28;20175;-70
2022/09/17 09:03:40;;;;;;;6.60;1.50;;;15.70;99.90;;;;;;5076982;28;20233;-70
2022/09/17 09:06:12;;;;;;;2.90;1.10;;;15.80;99.90;;;;;;5089511;28;20175;-68
2022/09/17 09:08:52;;;;;;;3.47;0.85;;;15.80;99.90;;;;;;5076615;28;20184;-70
2022/09/17 09:11:26;;;;;;;5.25;1.25;;;15.90;99.90;;;;;;5077705;28;20250;-71
2022/09/17 09:14:18;;;;;;;3.00;1.20;;;16.00;99.90;;;;;;5078200;28;20186;-71
2022/09/17 09:16:45;;;;;;;4.60;1.25;;;16.00;99.90;;;;;;5077792;28;20171;-72
2022/09/17 09:19:13;;;;;;;4.25;1.10;;;16.10;99.90;;;;;;5077780;28;20196;-72
2022/09/17 09:22:13;;;;;;;3.78;1.25;;;16.10;99.90;;;;;;5077547;28;20281;-72
2022/09/17 09:25:03;;;;;;;3.30;1.08;;;16.10;99.90;;;;;;5058021;28;20271;-73
2022/09/17 09:27:38;;;;;;;6.38;1.30;;;16.10;99.90;;;;;;5076424;28;20176;-71
2022/09/17 09:30:09;;;;;;;3.65;1.13;;;16.20;99.90;;;;;;5065621;28;20196;-74
2022/09/17 09:32:56;;;;;;;4.30;1.13;;;16.30;99.90;;;;;;5058977;28;20218;-73
2022/09/17 09:35:24;;;;;;;3.95;1.20;;;16.30;99.90;;;;;;5070824;28;20191;-71
2022/09/17 09:38:13;;;;;;;3.65;1.25;;;16.40;99.90;;;;;;5078115;28;20179;-73
2022/09/17 09:40:47;;;;;;;3.08;1.13;;;16.50;99.90;;;;;;5060922;28;20192;-71
2022/09/17 09:43:25;;;;;;;2.67;0.85;;;16.60;99.90;;;;;;5059923;28;20195;-73
2022/09/17 09:45:58;;;;;;;4.55;0.90;;;17.00;99.90;;;;;;5077795;28;20168;-72
2022/09/17 09:48:57;;;;;;;3.60;1.00;;;17.40;99.90;;;;;;5072058;28;20200;-71
2022/09/17 09:51:53;;;;;;;3.80;1.08;;;17.60;99.90;;;;;;5077482;28;20203;-72
2022/09/17 09:54:51;;;;;;;3.58;1.40;;;17.80;99.90;;;;;;5060849;28;20175;-68
2022/09/17 09:57:43;;;;;;;5.95;1.05;;;18.10;99.90;;;;;;5059192;28;20171;-73
2022/09/17 10:00:34;;;;;;;3.65;1.00;;;18.40;99.90;;;;;;5072033;28;20189;-72
2022/09/17 10:02:59;;;;;;;3.70;1.20;;;18.60;99.90;;;;;;5068141;28;20215;-74
2022/09/17 10:05:26;;;;;;;5.35;1.05;;;18.90;99.90;;;;;;5064493;28;20207;-72
2022/09/17 10:07:52;;;;;;;3.10;1.00;;;19.00;99.90;;;;;;5077103;28;20195;-72
2022/09/17 10:10:18;;;;;;;3.85;0.95;;;19.00;99.90;;;;;;5062433;28;20274;-73
2022/09/17 10:12:46;;;;;;;2.78;1.13;;;18.80;99.90;;;;;;5070696;28;20180;-74
2022/09/17 10:15:28;;;;;;;4.57;1.02;;;18.60;99.90;;;;;;5059921;28;20165;-72
2022/09/17 10:18:23;;;;;;;3.08;0.98;;;18.30;99.90;;;;;;5080975;28;20188;-72
2022/09/17 10:20:52;;;;;;;3.55;0.80;;;18.10;99.90;;;;;;5091637;28;20220;-74
2022/09/17 10:23:23;;;;;;;2.75;1.08;;;18.00;99.90;;;;;;5072294;28;20172;-71
2022/09/17 10:25:55;;;;;;;4.95;0.88;;;18.10;99.90;;;;;;5062607;28;20200;-71
2022/09/17 10:28:25;;;;;;;10.20;1.33;;;18.10;99.90;;;;;;5077241;28;20195;-72
2022/09/17 10:31:09;;;;;;;4.85;1.13;;;18.10;99.90;;;;;;5072823;28;20209;-72
2022/09/17 10:33:39;;;;;;;3.35;0.88;;;18.30;99.90;;;;;;5074466;28;20186;-72
2022/09/17 10:36:12;;;;;;;2.97;0.80;;;18.60;99.90;;;;;;5074830;28;20252;-71
2022/09/17 10:38:46;;;;;;;2.80;0.93;;;19.00;99.90;;;;;;5078201;28;20191;-71
2022/09/17 10:41:23;;;;;;;3.63;0.88;;;19.10;99.90;;;;;;5077126;28;20179;-70
2022/09/17 10:43:51;;;;;;;4.70;0.90;;;19.20;99.90;;;;;;5074363;28;20206;-70
2022/09/17 10:46:24;;;;;;;2.40;0.75;;;19.30;99.90;;;;;;5076183;28;20204;-73
2022/09/17 10:49:04;;;;;;;4.43;1.33;;;19.40;99.90;;;;;;5080500;28;20191;-71
2022/09/17 10:51:32;;;;;;;2.47;0.80;;;19.70;99.90;;;;;;5071527;28;20200;-73
2022/09/17 10:54:11;;;;;;;2.42;0.88;;;19.90;99.90;;;;;;5061090;28;20427;-73
2022/09/17 10:56:41;;;;;;;2.65;0.98;;;20.10;99.90;;;;;;5070313;28;20183;-72
2022/09/17 10:59:21;;;;;;;4.22;1.00;;;20.20;99.90;;;;;;5074085;28;20172;-71
2022/09/17 11:01:48;;;;;;;2.00;0.80;;;20.00;99.90;;;;;;5080442;28;20191;-74
2022/09/17 11:04:49;;;;;;;2.72;0.90;;;19.80;99.90;;;;;;5076287;28;20165;-71
2022/09/17 11:07:41;;;;;;;3.28;0.85;;;19.50;99.90;;;;;;5075515;28;20199;-71
2022/09/17 11:10:14;;;;;;;3.17;0.88;;;19.20;99.90;;;;;;5077531;28;20244;-72
2022/09/17 11:12:58;;;;;;;2.28;0.80;;;19.20;99.90;;;;;;5076260;28;20247;-71
2022/09/17 11:16:02;;;;;;;2.67;1.10;;;19.30;99.90;;;;;;5075575;28;20172;-71
2022/09/17 11:18:40;;;;;;;3.92;0.85;;;19.40;99.90;;;;;;5066383;28;20246;-70
2022/09/17 11:21:25;;;;;;;3.22;1.13;;;19.40;99.90;;;;;;5072880;28;20179;-71
2022/09/17 11:23:51;;;;;;;4.20;0.90;;;19.40;99.90;;;;;;5078865;28;20176;-72
2022/09/17 11:26:29;;;;;;;4.47;0.80;;;19.30;99.90;;;;;;5079129;28;20210;-75
2022/09/17 11:28:54;;;;;;;2.65;1.00;;;19.20;99.90;;;;;;5079239;28;20206;-72
2022/09/17 11:31:32;;;;;;;2.35;0.82;;;19.20;99.90;;;;;;5077687;28;20192;-72
2022/09/17 11:34:13;;;;;;;2.95;1.10;;;19.20;99.90;;;;;;5081508;28;20229;-73
2022/09/17 11:37:12;;;;;;;2.83;0.85;;;19.30;99.90;;;;;;5081264;28;20224;-73
2022/09/17 11:39:59;;;;;;;2.42;0.90;;;19.30;99.90;;;;;;5081434;28;20176;-70
2022/09/17 11:42:36;;;;;;;2.65;0.60;;;19.40;99.90;;;;;;5062394;28;20180;-73
2022/09/17 11:45:09;;;;;;;3.00;0.93;;;19.40;99.90;;;;;;5076473;28;20201;-72
2022/09/17 11:47:41;;;;;;;3.95;1.02;;;19.50;99.90;;;;;;5074323;28;20190;-71
2022/09/17 11:50:16;;;;;;;2.20;0.80;;;19.60;99.90;;;;;;5069712;28;20200;-71
2022/09/17 11:53:27;;;;;;;4.22;0.75;;;19.80;99.90;;;;;;5065248;28;20261;-73
2022/09/17 11:55:59;;;;;;;1.35;0.70;;;19.90;99.90;;;;;;5073278;28;20184;-70
2022/09/17 11:59:01;;;;;;;1.95;1.08;;;19.90;99.90;;;;;;5078460;28;20196;-73
2022/09/17 12:01:39;;;;;;;2.45;1.00;;;20.00;99.90;;;;;;5059491;28;20265;-73
2022/09/17 12:04:36;;;;;;;3.45;0.80;;;19.80;99.90;;;;;;5079796;28;20164;-72
2022/09/17 12:07:24;;;;;;;2.67;0.80;;;19.60;99.90;;;;;;5059490;28;20200;-71
2022/09/17 12:10:00;;;;;;;4.38;1.00;;;19.30;99.90;;;;;;5074762;28;20282;-74
2022/09/17 12:12:29;;;;;;;3.30;1.10;;;19.00;99.90;;;;;;5076067;28;20176;-71
2022/09/17 12:15:17;;;;;;;3.40;0.80;;;18.60;99.90;;;;;;5085775;28;20202;-72
2022/09/17 12:18:15;;;;;;;2.35;0.65;;;18.20;99.90;;;;;;5079395;28;20201;-72
2022/09/17 12:20:46;;;;;;;1.92;0.68;;;17.50;99.90;;;;;;5083987;28;20208;-71
2022/09/17 12:23:17;;;;;;;2.03;0.70;;;17.00;99.90;;;;;;5069509;28;20176;-70
2022/09/17 12:26:01;;;;;;;1.77;0.75;;;16.60;99.90;;;;;;5067940;28;20192;-71
2022/09/17 12:29:03;;;;;;;1.52;0.80;;;16.40;99.90;;;;;;5077728;28;20232;-72
2022/09/17 12:31:47;;;;;;;2.13;0.90;;;16.20;99.90;;;;;;5028136;28;20219;-74
2022/09/17 12:34:36;;;;;;;1.90;0.68;;;16.20;99.90;;;;;;5061119;28;20204;-72
2022/09/17 12:37:35;;;;;;;1.33;0.60;;;16.40;99.90;;;;;;5078251;28;20241;-70
2022/09/17 12:40:04;;;;;;;2.13;0.60;;;16.60;99.90;;;;;;5077763;28;20172;-70
2022/09/17 12:43:08;;;;;;;3.47;0.93;;;16.60;99.90;;;;;;5077952;28;20173;-72
2022/09/17 12:45:54;;;;;;;1.27;0.60;;;16.70;99.90;;;;;;5070974;28;20182;-71
2022/09/17 12:48:29;;;;;;;4.35;0.90;;;16.60;99.90;;;;;;5074162;28;20187;-72
2022/09/17 12:51:25;;;;;;;3.03;0.68;;;16.60;99.90;;;;;;5077608;28;20229;-71
2022/09/17 12:54:01;;;;;;;1.17;0.50;;;16.60;99.90;;;;;;5072141;28;20178;-71
2022/09/17 12:56:36;;;;;;;2.70;0.57;;;16.50;99.90;;;;;;5073559;28;20190;-73
2022/09/17 12:59:20;;;;;;;2.75;1.65;;;16.40;99.90;;;;;;5069376;28;20199;-72
2022/09/17 13:02:03;;;;;;;1.08;0.68;;;16.40;99.90;;;;;;5076211;28;20179;-71
2022/09/17 13:04:40;;;;;;;1.40;0.40;;;16.50;99.90;;;;;;5065703;28;20223;-71
2022/09/17 13:07:12;;;;;;;2.95;0.70;;;16.70;99.90;;;;;;5075003;28;20332;-71
2022/09/17 13:09:55;;;;;;;1.25;0.52;;;16.90;99.90;;;;;;5068956;28;20192;-71
2022/09/17 13:12:36;;;;;;;3.10;1.63;;;17.00;99.90;;;;;;5074597;28;20223;-71
2022/09/17 13:15:25;;;;;;;2.55;1.40;;;17.20;99.90;;;;;;5081175;28;20192;-70
2022/09/17 13:17:59;;;;;;;3.55;1.45;;;17.30;99.90;;;;;;5075031;28;20272;-70
2022/09/17 13:21:00;;;;;;;2.65;1.08;;;17.50;99.90;;;;;;5074277;28;20274;-70
2022/09/17 13:23:36;;;;;;;2.55;1.00;;;17.70;99.90;;;;;;5094743;28;20168;-72